Time;durP1;ratioP1;P1;durP2;ratioP2;P2;SDS_P1;SDS_P2;PMS_P1;PMS_P2;Temp;Humidity;BMP_temperature;BMP_pressure;BME280_temperature;BME280_humidity;BME280_pressure;Samples;Min_cycle;Max_cycle;Signal;HPM_P1;HPM_P2
2022/03/06 00:00:11;;;;;;;6.35;3.15;;;;;;;;;;5050884;28;20025;-73
2022/03/06 00:02:38;;;;;;;7.15;3.00;;;;;;;;;;5050512;28;20073;-73
2022/03/06 00:05:06;;;;;;;5.95;3.20;;;;;;;;;;5059397;28;20120;-73
2022/03/06 00:07:33;;;;;;;5.25;2.90;;;;;;;;;;5076053;28;20126;-73
2022/03/06 00:10:00;;;;;;;4.85;3.15;;;;;;;;;;5075690;28;20480;-73
2022/03/06 00:12:27;;;;;;;6.10;3.27;;;;;;;;;;5075851;28;20029;-73
2022/03/06 00:14:54;;;;;;;7.93;2.70;;;;;;;;;;5075745;28;20044;-73
2022/03/06 00:17:21;;;;;;;5.23;3.00;;;;;;;;;;5075505;28;20024;-74
2022/03/06 00:19:48;;;;;;;4.33;2.83;;;;;;;;;;5070329;28;20167;-73
2022/03/06 00:22:15;;;;;;;5.17;2.77;;;;;;;;;;5070589;28;20210;-73
2022/03/06 00:24:42;;;;;;;6.10;3.00;;;;;;;;;;5070646;28;20062;-73
2022/03/06 00:27:09;;;;;;;5.87;2.80;;;;;;;;;;5070524;28;20025;-73
2022/03/06 00:29:36;;;;;;;6.63;3.20;;;;;;;;;;5075067;28;20024;-73
2022/03/06 00:32:05;;;;;;;8.07;3.10;;;;;;;;;;5075192;28;20027;-73
2022/03/06 00:34:33;;;;;;;4.43;2.93;;;;;;;;;;5074849;28;20467;-74
2022/03/06 00:37:00;;;;;;;6.53;2.93;;;;;;;;;;5075122;28;20034;-73
2022/03/06 00:39:27;;;;;;;9.97;3.17;;;;;;;;;;5075236;28;20024;-72
2022/03/06 00:41:53;;;;;;;4.93;3.57;;;;;;;;;;5070774;28;20468;-72
2022/03/06 00:44:21;;;;;;;8.80;3.23;;;;;;;;;;5070118;28;20025;-73
2022/03/06 00:46:48;;;;;;;5.33;3.40;;;;;;;;;;5061092;28;20456;-72
2022/03/06 00:49:15;;;;;;;6.57;3.27;;;;;;;;;;5050023;28;20557;-72
2022/03/06 00:51:42;;;;;;;4.10;3.07;;;;;;;;;;5053566;28;20079;-71
2022/03/06 00:54:09;;;;;;;5.53;3.80;;;;;;;;;;5053951;28;20037;-70
2022/03/06 00:56:36;;;;;;;6.03;3.57;;;;;;;;;;5054570;28;20025;-71
2022/03/06 00:59:04;;;;;;;8.03;3.80;;;;;;;;;;5054847;28;20094;-71
2022/03/06 01:01:31;;;;;;;6.73;3.97;;;;;;;;;;5054765;28;20488;-71
2022/03/06 01:03:57;;;;;;;7.03;4.13;;;;;;;;;;5050381;28;20063;-71
2022/03/06 01:06:24;;;;;;;6.47;4.40;;;;;;;;;;5069059;28;20035;-71
2022/03/06 01:08:51;;;;;;;6.77;4.50;;;;;;;;;;5069214;28;20099;-71
2022/03/06 01:11:18;;;;;;;5.40;4.37;;;;;;;;;;5069651;28;20067;-71
2022/03/06 01:13:45;;;;;;;6.30;4.37;;;;;;;;;;5072933;28;21323;-71
2022/03/06 01:16:12;;;;;;;6.73;4.87;;;;;;;;;;5074651;28;20031;-71
2022/03/06 01:18:40;;;;;;;8.63;4.73;;;;;;;;;;5074521;28;20021;-71
2022/03/06 01:21:07;;;;;;;8.50;4.60;;;;;;;;;;5074409;28;20033;-71
2022/03/06 01:23:35;;;;;;;11.20;5.47;;;;;;;;;;5074552;28;20035;-71
2022/03/06 01:26:04;;;;;;;11.50;5.67;;;;;;;;;;5070648;28;20043;-71
2022/03/06 01:28:33;;;;;;;8.90;5.00;;;;;;;;;;5069226;28;20027;-71
2022/03/06 01:31:00;;;;;;;9.77;5.20;;;;;;;;;;5069199;28;20032;-71
2022/03/06 01:33:27;;;;;;;9.50;6.00;;;;;;;;;;5069267;28;20036;-71
2022/03/06 01:35:55;;;;;;;9.30;5.40;;;;;;;;;;5072235;28;20383;-71
2022/03/06 01:38:22;;;;;;;17.93;6.10;;;;;;;;;;5073859;28;20024;-71
2022/03/06 01:40:50;;;;;;;8.53;6.27;;;;;;;;;;5073869;28;20028;-71
2022/03/06 01:43:17;;;;;;;9.10;7.07;;;;;;;;;;5074081;28;20413;-71
2022/03/06 01:45:44;;;;;;;14.20;6.50;;;;;;;;;;5073672;28;20027;-71
2022/03/06 01:48:11;;;;;;;10.50;6.50;;;;;;;;;;5070136;28;20028;-71
2022/03/06 01:50:39;;;;;;;8.10;6.50;;;;;;;;;;5068758;28;20119;-71
2022/03/06 01:53:09;;;;;;;8.90;6.43;;;;;;;;;;5068602;28;20357;-71
2022/03/06 01:55:36;;;;;;;9.47;6.20;;;;;;;;;;5048838;28;20064;-71
2022/03/06 01:58:06;;;;;;;8.07;6.43;;;;;;;;;;5063173;28;20074;-71
2022/03/06 02:00:35;;;;;;;11.67;7.27;;;;;;;;;;5058591;28;20483;-68
2022/03/06 02:03:02;;;;;;;17.83;7.43;;;;;;;;;;5073581;28;20047;-69
2022/03/06 02:05:29;;;;;;;9.03;6.67;;;;;;;;;;5072652;28;20036;-70
2022/03/06 02:07:56;;;;;;;10.87;6.63;;;;;;;;;;5073633;28;20016;-68
2022/03/06 02:10:23;;;;;;;11.53;6.97;;;;;;;;;;5070355;28;20023;-70
2022/03/06 02:12:50;;;;;;;13.67;7.20;;;;;;;;;;5068167;28;20463;-69
2022/03/06 02:15:21;;;;;;;12.50;7.40;;;;;;;;;;5068359;28;20494;-69
2022/03/06 02:17:51;;;;;;;13.90;7.20;;;;;;;;;;5068393;28;20033;-69
2022/03/06 02:20:20;;;;;;;10.10;6.80;;;;;;;;;;5070949;28;20033;-67
2022/03/06 02:22:54;;;;;;;11.30;7.43;;;;;;;;;;5068270;28;20041;-69
2022/03/06 02:25:21;;;;;;;9.02;6.15;;;;;;;;;;5052962;28;20059;-67
2022/03/06 02:27:49;;;;;;;13.70;7.80;;;;;;;;;;5054419;28;20451;-68
2022/03/06 02:30:17;;;;;;;10.40;7.47;;;;;;;;;;5072834;28;20037;-68
2022/03/06 02:32:46;;;;;;;9.60;7.40;;;;;;;;;;5069371;28;20471;-68
2022/03/06 02:35:13;;;;;;;10.97;7.33;;;;;;;;;;5067510;28;20020;-69
2022/03/06 02:37:41;;;;;;;12.60;6.47;;;;;;;;;;5067331;28;20036;-68
2022/03/06 02:40:09;;;;;;;11.30;7.87;;;;;;;;;;5067375;28;20020;-68
2022/03/06 02:42:41;;;;;;;10.70;7.50;;;;;;;;;;5070153;28;20498;-68
2022/03/06 02:45:10;;;;;;;13.30;7.93;;;;;;;;;;5072299;28;20016;-68
2022/03/06 02:47:38;;;;;;;9.13;7.70;;;;;;;;;;5072440;28;20041;-68
2022/03/06 02:50:09;;;;;;;11.30;7.17;;;;;;;;;;5072053;28;20030;-68
2022/03/06 02:52:36;;;;;;;12.43;7.77;;;;;;;;;;5072760;28;20043;-68
2022/03/06 02:55:04;;;;;;;12.87;8.30;;;;;;;;;;5068271;28;20083;-68
2022/03/06 02:57:31;;;;;;;11.80;7.53;;;;;;;;;;5067253;28;20120;-68
2022/03/06 02:59:58;;;;;;;15.80;8.70;;;;;;;;;;5067042;28;20379;-73
2022/03/06 03:02:25;;;;;;;10.83;7.97;;;;;;;;;;5067489;28;20099;-70
2022/03/06 03:04:52;;;;;;;10.07;8.17;;;;;;;;;;5063365;28;20025;-70
2022/03/06 03:07:19;;;;;;;12.63;8.60;;;;;;;;;;5066032;28;20103;-71
2022/03/06 03:09:52;;;;;;;13.03;9.10;;;;;;;;;;5071894;28;20070;-70
2022/03/06 03:12:19;;;;;;;12.37;8.30;;;;;;;;;;5072183;28;20375;-70
2022/03/06 03:14:46;;;;;;;14.53;8.23;;;;;;;;;;5072384;28;20444;-70
2022/03/06 03:17:13;;;;;;;10.73;7.77;;;;;;;;;;5069210;28;20525;-69
2022/03/06 03:19:40;;;;;;;14.83;8.87;;;;;;;;;;5066618;28;20100;-70
2022/03/06 03:22:06;;;;;;;21.27;8.33;;;;;;;;;;5067455;28;20060;-70
2022/03/06 03:24:33;;;;;;;12.43;8.33;;;;;;;;;;5067222;28;20028;-70
2022/03/06 03:27:03;;;;;;;11.53;8.53;;;;;;;;;;5068980;28;20434;-70
2022/03/06 03:29:30;;;;;;;12.17;8.00;;;;;;;;;;5072449;28;20104;-70
2022/03/06 03:31:57;;;;;;;13.70;8.50;;;;;;;;;;5072260;28;20029;-70
2022/03/06 03:34:23;;;;;;;17.93;9.37;;;;;;;;;;5071918;28;20505;-70
2022/03/06 03:36:50;;;;;;;11.10;8.10;;;;;;;;;;5072050;28;20099;-70
2022/03/06 03:39:18;;;;;;;12.67;9.20;;;;;;;;;;5069552;28;20039;-70
2022/03/06 03:41:45;;;;;;;10.60;8.63;;;;;;;;;;5066329;28;20040;-70
2022/03/06 03:44:12;;;;;;;11.27;8.40;;;;;;;;;;5066817;28;20036;-70
2022/03/06 03:46:39;;;;;;;11.47;8.53;;;;;;;;;;5067126;28;20047;-70
2022/03/06 03:49:06;;;;;;;16.53;8.60;;;;;;;;;;5068718;28;20036;-70
2022/03/06 03:51:33;;;;;;;14.03;9.47;;;;;;;;;;5071905;28;20502;-70
2022/03/06 03:54:00;;;;;;;11.70;8.37;;;;;;;;;;5071789;28;20033;-71
2022/03/06 03:56:27;;;;;;;16.00;8.90;;;;;;;;;;5071567;28;20108;-70
2022/03/06 03:58:54;;;;;;;12.97;9.20;;;;;;;;;;5071686;28;20051;-70
2022/03/06 04:01:21;;;;;;;16.77;8.00;;;;;;;;;;5069609;28;20052;-70
2022/03/06 04:03:49;;;;;;;8.97;7.60;;;;;;;;;;5066495;28;20039;-70
2022/03/06 04:06:16;;;;;;;12.37;7.60;;;;;;;;;;5065992;28;20383;-70
2022/03/06 04:08:43;;;;;;;11.27;6.80;;;;;;;;;;5066674;28;20051;-70
2022/03/06 04:11:10;;;;;;;11.50;7.63;;;;;;;;;;5067715;28;20035;-70
2022/03/06 04:13:37;;;;;;;12.83;6.83;;;;;;;;;;5071699;28;20560;-70
2022/03/06 04:16:04;;;;;;;10.57;6.90;;;;;;;;;;5071114;28;20060;-75
2022/03/06 04:18:31;;;;;;;19.70;7.73;;;;;;;;;;5071873;28;20042;-72
2022/03/06 04:20:58;;;;;;;11.03;7.03;;;;;;;;;;5071576;28;20090;-76
2022/03/06 04:23:29;;;;;;;16.60;7.83;;;;;;;;;;5053660;28;20024;-77
2022/03/06 04:25:56;;;;;;;11.30;7.73;;;;;;;;;;5067086;28;20035;-75
2022/03/06 04:28:23;;;;;;;10.40;7.47;;;;;;;;;;5066753;28;20024;-75
2022/03/06 04:30:50;;;;;;;13.40;6.37;;;;;;;;;;5069651;28;20027;-75
2022/03/06 04:33:17;;;;;;;11.13;7.67;;;;;;;;;;5070429;28;20043;-75
2022/03/06 04:35:45;;;;;;;10.00;6.87;;;;;;;;;;5073652;28;20435;-70
2022/03/06 04:38:12;;;;;;;10.40;7.13;;;;;;;;;;5075050;28;20483;-70
2022/03/06 04:40:41;;;;;;;12.93;7.67;;;;;;;;;;5073839;28;20012;-70
2022/03/06 04:43:09;;;;;;;11.07;7.77;;;;;;;;;;5074845;28;20104;-70
2022/03/06 04:45:37;;;;;;;10.70;6.33;;;;;;;;;;5073602;28;20028;-70
2022/03/06 04:48:08;;;;;;;13.60;7.40;;;;;;;;;;5069390;28;20024;-70
2022/03/06 04:50:40;;;;;;;11.60;7.00;;;;;;;;;;5069797;28;20444;-70
2022/03/06 04:53:07;;;;;;;14.33;9.03;;;;;;;;;;5069740;28;20526;-70
2022/03/06 04:55:35;;;;;;;11.83;8.63;;;;;;;;;;5070445;28;20111;-70
2022/03/06 04:58:03;;;;;;;14.17;9.17;;;;;;;;;;5074430;28;20143;-70
2022/03/06 05:00:33;;;;;;;12.03;9.47;;;;;;;;;;5074238;28;20460;-69
2022/03/06 05:03:01;;;;;;;12.37;9.47;;;;;;;;;;5075122;28;20031;-69
2022/03/06 05:05:29;;;;;;;13.27;9.67;;;;;;;;;;5063310;28;20151;-69
2022/03/06 05:07:56;;;;;;;14.00;10.43;;;;;;;;;;5053740;28;20048;-69
2022/03/06 05:10:23;;;;;;;13.40;10.40;;;;;;;;;;5059964;28;20538;-70
2022/03/06 05:12:49;;;;;;;15.67;10.30;;;;;;;;;;5069453;28;20097;-70
2022/03/06 05:15:16;;;;;;;12.90;10.53;;;;;;;;;;5069280;28;20033;-69
2022/03/06 05:17:43;;;;;;;15.00;11.23;;;;;;;;;;5068864;28;20039;-69
2022/03/06 05:20:18;;;;;;;17.63;12.30;;;;;;;;;;5074409;28;20089;-67
2022/03/06 05:22:46;;;;;;;14.67;11.13;;;;;;;;;;5074344;28;20038;-71
2022/03/06 05:25:14;;;;;;;14.03;10.83;;;;;;;;;;5074232;28;20027;-69
2022/03/06 05:27:41;;;;;;;13.63;10.60;;;;;;;;;;5074106;28;20021;-68
2022/03/06 05:30:10;;;;;;;17.00;11.97;;;;;;;;;;5073287;28;20090;-68
2022/03/06 05:32:37;;;;;;;11.77;9.93;;;;;;;;;;5068818;28;20848;-70
2022/03/06 05:35:05;;;;;;;13.03;9.77;;;;;;;;;;5068711;28;20040;-71
2022/03/06 05:37:35;;;;;;;12.40;9.37;;;;;;;;;;5068699;28;20025;-69
2022/03/06 05:40:02;;;;;;;16.47;10.63;;;;;;;;;;5068886;28;20112;-70
2022/03/06 05:42:29;;;;;;;15.93;9.73;;;;;;;;;;5073357;28;20025;-71
2022/03/06 05:44:55;;;;;;;14.17;9.53;;;;;;;;;;5073802;28;20073;-69
2022/03/06 05:47:22;;;;;;;12.37;9.30;;;;;;;;;;5073595;28;20052;-71
2022/03/06 05:49:49;;;;;;;12.10;8.47;;;;;;;;;;5073387;28;20024;-70
2022/03/06 05:52:17;;;;;;;12.60;8.47;;;;;;;;;;5073650;28;20071;-70
2022/03/06 05:54:44;;;;;;;12.90;7.97;;;;;;;;;;5068422;28;20502;-69
2022/03/06 05:57:10;;;;;;;10.07;7.53;;;;;;;;;;5068502;28;20030;-71
2022/03/06 05:59:37;;;;;;;10.20;7.17;;;;;;;;;;5068685;28;20032;-71
2022/03/06 06:02:04;;;;;;;13.90;8.20;;;;;;;;;;5068205;28;20379;-70
2022/03/06 06:04:31;;;;;;;13.27;8.07;;;;;;;;;;5069467;28;20032;-71
2022/03/06 06:06:58;;;;;;;11.60;7.60;;;;;;;;;;5061062;28;20121;-70
2022/03/06 06:09:25;;;;;;;13.00;8.13;;;;;;;;;;5073538;28;20542;-70
2022/03/06 06:11:52;;;;;;;16.60;7.93;;;;;;;;;;5073395;28;20054;-69
2022/03/06 06:14:19;;;;;;;10.27;7.53;;;;;;;;;;5072890;28;20036;-68
2022/03/06 06:16:46;;;;;;;9.80;6.03;;;;;;;;;;5068319;28;20349;-71
2022/03/06 06:19:13;;;;;;;11.23;6.90;;;;;;;;;;5067623;28;20036;-72
2022/03/06 06:21:43;;;;;;;11.33;6.77;;;;;;;;;;5083735;28;20372;-71
2022/03/06 06:24:11;;;;;;;9.57;6.33;;;;;;;;;;5067961;28;20036;-72
2022/03/06 06:26:37;;;;;;;10.73;5.80;;;;;;;;;;5072598;28;20027;-76
2022/03/06 06:29:04;;;;;;;9.47;6.23;;;;;;;;;;5073034;28;20420;-72
2022/03/06 06:31:31;;;;;;;8.80;5.80;;;;;;;;;;5072842;28;20028;-75
2022/03/06 06:33:58;;;;;;;11.80;7.60;;;;;;;;;;5072860;28;20079;-73
2022/03/06 06:36:25;;;;;;;9.07;6.43;;;;;;;;;;5053224;28;20033;-75
2022/03/06 06:38:52;;;;;;;12.70;7.73;;;;;;;;;;5048147;28;20021;-71
2022/03/06 06:41:19;;;;;;;8.70;6.37;;;;;;;;;;5067263;28;20111;-71
2022/03/06 06:43:46;;;;;;;9.53;6.47;;;;;;;;;;5067903;28;20028;-70
2022/03/06 06:46:12;;;;;;;10.10;7.00;;;;;;;;;;5067413;28;20475;-74
2022/03/06 06:48:39;;;;;;;10.20;6.50;;;;;;;;;;5071443;28;20024;-74
2022/03/06 06:51:07;;;;;;;7.70;5.57;;;;;;;;;;5071952;28;20115;-73
2022/03/06 06:53:34;;;;;;;7.50;5.50;;;;;;;;;;5072433;28;20036;-75
2022/03/06 06:56:01;;;;;;;9.40;6.77;;;;;;;;;;5072471;28;20257;-73
2022/03/06 06:58:28;;;;;;;11.30;6.60;;;;;;;;;;5072948;28;20159;-71
2022/03/06 07:00:55;;;;;;;9.13;6.53;;;;;;;;;;5067545;28;20050;-73
2022/03/06 07:03:22;;;;;;;9.60;6.87;;;;;;;;;;5067490;28;20107;-72
2022/03/06 07:05:48;;;;;;;8.03;5.87;;;;;;;;;;5053205;28;20063;-72
2022/03/06 07:08:15;;;;;;;10.93;6.10;;;;;;;;;;5065585;28;20375;-72
2022/03/06 07:10:42;;;;;;;9.40;6.77;;;;;;;;;;5070238;28;20031;-70
2022/03/06 07:13:09;;;;;;;15.80;7.10;;;;;;;;;;5072231;28;20097;-72
2022/03/06 07:15:36;;;;;;;12.07;6.83;;;;;;;;;;5072089;28;20028;-73
2022/03/06 07:18:02;;;;;;;9.53;5.90;;;;;;;;;;5072085;28;20387;-66
2022/03/06 07:20:30;;;;;;;8.70;5.83;;;;;;;;;;5071859;28;20024;-70
2022/03/06 07:22:56;;;;;;;13.27;7.43;;;;;;;;;;5068380;28;20124;-69
2022/03/06 07:25:24;;;;;;;7.87;5.67;;;;;;;;;;5067214;28;20028;-68
2022/03/06 07:27:51;;;;;;;9.17;6.07;;;;;;;;;;5066888;28;20499;-68
2022/03/06 07:30:18;;;;;;;10.87;5.97;;;;;;;;;;5067371;28;20403;-69
2022/03/06 07:32:48;;;;;;;10.73;6.23;;;;;;;;;;5069764;28;20043;-69
2022/03/06 07:35:16;;;;;;;21.77;6.83;;;;;;;;;;5072084;28;20043;-66
2022/03/06 07:37:43;;;;;;;22.20;7.03;;;;;;;;;;5071911;28;20031;-65
2022/03/06 07:40:11;;;;;;;9.83;5.83;;;;;;;;;;5072058;28;20037;-69
2022/03/06 07:42:38;;;;;;;10.70;7.13;;;;;;;;;;5071674;28;20028;-67
2022/03/06 07:45:06;;;;;;;7.50;4.97;;;;;;;;;;5068396;28;20074;-68
2022/03/06 07:47:33;;;;;;;9.23;5.93;;;;;;;;;;5066924;28;20029;-67
2022/03/06 07:50:00;;;;;;;8.17;6.23;;;;;;;;;;5066046;28;20392;-69
2022/03/06 07:52:26;;;;;;;12.77;6.67;;;;;;;;;;5066911;28;20044;-68
2022/03/06 07:54:53;;;;;;;10.30;5.83;;;;;;;;;;5069505;28;20033;-66
2022/03/06 07:57:20;;;;;;;11.37;7.07;;;;;;;;;;5072105;28;20021;-63
2022/03/06 07:59:47;;;;;;;8.67;5.37;;;;;;;;;;5070989;28;20016;-69
2022/03/06 08:02:13;;;;;;;10.00;6.40;;;;;;;;;;5071802;28;20137;-64
2022/03/06 08:04:41;;;;;;;14.60;6.70;;;;;;;;;;5069173;28;20143;-68
2022/03/06 08:07:08;;;;;;;10.77;6.20;;;;;;;;;;5067419;28;20548;-65
2022/03/06 08:09:36;;;;;;;8.70;6.10;;;;;;;;;;5070566;28;20035;-69
2022/03/06 08:12:03;;;;;;;15.13;5.93;;;;;;;;;;5070776;28;20506;-70
2022/03/06 08:14:31;;;;;;;11.13;7.17;;;;;;;;;;5070079;28;20078;-70
2022/03/06 08:16:58;;;;;;;13.27;7.23;;;;;;;;;;5073049;28;20021;-67
2022/03/06 08:19:28;;;;;;;13.47;6.80;;;;;;;;;;5075365;28;20831;-67
2022/03/06 08:21:55;;;;;;;10.57;6.80;;;;;;;;;;5075152;28;20429;-66
2022/03/06 08:24:28;;;;;;;9.13;6.33;;;;;;;;;;5075441;28;20142;-66
2022/03/06 08:26:55;;;;;;;10.27;6.73;;;;;;;;;;5075443;28;20488;-65
2022/03/06 08:29:22;;;;;;;8.03;5.40;;;;;;;;;;5071742;28;20369;-69
2022/03/06 08:31:53;;;;;;;9.40;6.17;;;;;;;;;;5070139;28;20341;-66
2022/03/06 08:34:21;;;;;;;11.63;6.83;;;;;;;;;;5070257;28;20033;-64
2022/03/06 08:36:48;;;;;;;11.30;6.80;;;;;;;;;;5069948;28;20028;-66
2022/03/06 08:39:15;;;;;;;10.87;6.93;;;;;;;;;;5072781;28;20131;-65
2022/03/06 08:41:42;;;;;;;9.00;6.80;;;;;;;;;;5075003;28;20549;-65
2022/03/06 08:44:09;;;;;;;9.60;6.20;;;;;;;;;;5075358;28;20033;-66
2022/03/06 08:46:36;;;;;;;7.53;5.37;;;;;;;;;;5074814;28;20082;-66
2022/03/06 08:49:03;;;;;;;9.27;6.30;;;;;;;;;;5074509;28;20033;-66
2022/03/06 08:51:32;;;;;;;10.07;6.20;;;;;;;;;;5072276;28;20024;-66
2022/03/06 08:54:00;;;;;;;10.70;6.77;;;;;;;;;;5069210;28;20037;-65
2022/03/06 08:56:28;;;;;;;10.80;6.57;;;;;;;;;;5069812;28;20031;-65
2022/03/06 08:58:55;;;;;;;13.37;6.87;;;;;;;;;;5069722;28;20559;-65
2022/03/06 09:01:23;;;;;;;8.83;5.37;;;;;;;;;;5071527;28;20024;-65
2022/03/06 09:03:50;;;;;;;9.43;5.93;;;;;;;;;;5074383;28;20119;-65
2022/03/06 09:06:17;;;;;;;8.30;5.90;;;;;;;;;;5056398;28;20029;-65
2022/03/06 09:08:45;;;;;;;10.57;5.17;;;;;;;;;;5066791;28;20033;-65
2022/03/06 09:11:12;;;;;;;8.33;5.47;;;;;;;;;;5074086;28;20032;-65
2022/03/06 09:13:39;;;;;;;8.93;5.60;;;;;;;;;;5071914;28;20094;-65
2022/03/06 09:16:06;;;;;;;7.90;5.30;;;;;;;;;;5068214;28;20435;-66
2022/03/06 09:18:33;;;;;;;7.57;5.33;;;;;;;;;;5069451;28;20052;-65
2022/03/06 09:21:01;;;;;;;12.63;5.77;;;;;;;;;;5069626;28;20031;-65
2022/03/06 09:23:28;;;;;;;9.27;6.27;;;;;;;;;;5071047;28;20356;-65
2022/03/06 09:25:56;;;;;;;7.70;4.83;;;;;;;;;;5073843;28;20499;-65
2022/03/06 09:28:25;;;;;;;9.30;5.90;;;;;;;;;;5074196;28;20021;-65
2022/03/06 09:30:52;;;;;;;13.53;5.87;;;;;;;;;;5074439;28;20032;-65
2022/03/06 09:33:20;;;;;;;7.70;4.37;;;;;;;;;;5073602;28;20032;-65
2022/03/06 09:35:46;;;;;;;9.63;5.70;;;;;;;;;;5071846;28;20032;-65
2022/03/06 09:38:14;;;;;;;9.10;5.97;;;;;;;;;;5069057;28;20017;-65
2022/03/06 09:40:43;;;;;;;8.37;5.77;;;;;;;;;;5068995;28;20032;-65
2022/03/06 09:43:14;;;;;;;12.40;6.00;;;;;;;;;;5068948;28;20027;-65
2022/03/06 09:45:42;;;;;;;8.73;5.43;;;;;;;;;;5070886;28;20100;-65
2022/03/06 09:48:11;;;;;;;10.20;6.07;;;;;;;;;;5073547;28;20030;-65
2022/03/06 09:50:38;;;;;;;14.00;6.97;;;;;;;;;;5073632;28;20114;-65
2022/03/06 09:53:05;;;;;;;7.53;5.00;;;;;;;;;;5073466;28;20036;-65
2022/03/06 09:55:32;;;;;;;10.07;5.73;;;;;;;;;;5089449;28;20380;-65
2022/03/06 09:58:00;;;;;;;7.50;5.23;;;;;;;;;;5071677;28;20380;-65
2022/03/06 10:00:27;;;;;;;12.20;7.40;;;;;;;;;;5068907;28;20025;-65
2022/03/06 10:02:54;;;;;;;12.90;7.17;;;;;;;;;;5068329;28;20052;-66
2022/03/06 10:05:32;;;;;;;11.93;7.40;;;;;;;;;;5068746;28;20034;-65
2022/03/06 10:08:17;;;;;;;15.07;8.60;;;;;;;;;;5070726;28;20376;-65
2022/03/06 10:10:47;;;;;;;10.60;7.03;;;;;;;;;;5073496;28;20047;-65
2022/03/06 10:13:23;;;;;;;11.87;7.50;;;;;;;;;;5073138;28;20349;-65
2022/03/06 10:16:08;;;;;;;10.13;6.50;;;;;;;;;;5073592;28;20051;-65
2022/03/06 10:18:35;;;;;;;;;;;;;;;;;;5073770;28;20059;-65
2022/03/06 10:21:04;;;;;;;10.73;5.97;;;;;;;;;;5069408;28;20044;-65
2022/03/06 10:23:33;;;;;;;10.40;5.87;;;;;;;;;;5068402;28;20267;-66
2022/03/06 10:26:05;;;;;;;8.43;5.47;;;;;;;;;;5068479;28;20363;-65
2022/03/06 10:28:46;;;;;;;10.47;6.63;;;;;;;;;;5067930;28;20020;-65
2022/03/06 10:31:15;;;;;;;9.43;6.50;;;;;;;;;;5072415;28;20417;-65
2022/03/06 10:33:54;;;;;;;12.33;7.23;;;;;;;;;;5072494;28;20028;-65
2022/03/06 10:36:29;;;;;;;8.80;5.47;;;;;;;;;;5072966;28;20108;-65
2022/03/06 10:38:57;;;;;;;8.60;5.60;;;;;;;;;;5073313;28;20367;-65
2022/03/06 10:41:23;;;;;;;8.53;5.80;;;;;;;;;;5072842;28;20265;-65
2022/03/06 10:43:53;;;;;;;12.73;6.67;;;;;;;;;;5068000;28;20801;-65
2022/03/06 10:46:22;;;;;;;10.27;6.13;;;;;;;;;;5067905;28;20257;-65
2022/03/06 10:48:59;;;;;;;12.67;6.50;;;;;;;;;;5067757;28;20295;-65
2022/03/06 10:51:27;;;;;;;10.17;6.37;;;;;;;;;;5067569;28;20453;-65
2022/03/06 10:53:55;;;;;;;13.20;6.93;;;;;;;;;;5071948;28;20362;-65
2022/03/06 10:56:22;;;;;;;8.40;5.77;;;;;;;;;;5072304;28;20752;-65
2022/03/06 10:58:49;;;;;;;9.23;6.17;;;;;;;;;;5072172;28;20033;-65
2022/03/06 11:01:17;;;;;;;8.90;5.73;;;;;;;;;;5072395;28;20562;-65
2022/03/06 11:03:44;;;;;;;8.37;6.23;;;;;;;;;;5072221;28;20268;-65
2022/03/06 11:06:12;;;;;;;10.17;5.30;;;;;;;;;;5064260;28;20338;-66
2022/03/06 11:08:40;;;;;;;7.10;4.60;;;;;;;;;;5067199;28;20276;-65
2022/03/06 11:11:09;;;;;;;10.30;6.03;;;;;;;;;;5067047;28;20386;-65
2022/03/06 11:13:37;;;;;;;11.20;6.00;;;;;;;;;;5067036;28;20762;-65
2022/03/06 11:16:05;;;;;;;8.07;5.37;;;;;;;;;;5072144;28;20108;-65
2022/03/06 11:18:33;;;;;;;9.83;5.43;;;;;;;;;;5055357;28;20740;-65
2022/03/06 11:21:01;;;;;;;7.40;5.47;;;;;;;;;;5052510;28;20875;-64
2022/03/06 11:23:35;;;;;;;9.03;5.63;;;;;;;;;;5052494;28;20296;-65
2022/03/06 11:26:12;;;;;;;7.83;5.27;;;;;;;;;;5051465;28;20265;-65
2022/03/06 11:28:57;;;;;;;9.43;5.70;;;;;;;;;;5047388;28;20254;-65
2022/03/06 11:31:24;;;;;;;8.88;5.38;;;;;;;;;;5047325;28;20246;-65
2022/03/06 11:34:04;;;;;;;11.67;6.67;;;;;;;;;;5060799;28;20430;-65
2022/03/06 11:36:31;;;;;;;12.80;5.73;;;;;;;;;;5068295;28;20816;-64
2022/03/06 11:38:58;;;;;;;10.87;7.00;;;;;;;;;;5071491;28;20268;-65
2022/03/06 11:41:26;;;;;;;10.20;6.30;;;;;;;;;;5072175;28;20258;-65
2022/03/06 11:43:54;;;;;;;9.40;5.73;;;;;;;;;;5071824;28;20261;-65
2022/03/06 11:46:22;;;;;;;8.87;6.17;;;;;;;;;;5071655;28;20277;-65
2022/03/06 11:48:49;;;;;;;16.03;6.43;;;;;;;;;;5070737;28;20372;-65
2022/03/06 11:51:26;;;;;;;10.30;5.97;;;;;;;;;;5066247;28;21188;-65
2022/03/06 11:54:05;;;;;;;9.93;5.47;;;;;;;;;;5066838;28;20795;-65
2022/03/06 11:56:35;;;;;;;7.67;4.83;;;;;;;;;;5066855;28;20407;-64
2022/03/06 11:59:09;;;;;;;8.27;5.73;;;;;;;;;;5068272;28;20281;-65
2022/03/06 12:01:46;;;;;;;11.90;6.00;;;;;;;;;;5071431;28;20744;-65
2022/03/06 12:04:14;;;;;;;12.53;5.50;;;;;;;;;;5070643;28;20262;-65
2022/03/06 12:06:44;;;;;;;9.27;5.80;;;;;;;;;;5058534;28;20265;-64
2022/03/06 12:09:22;;;;;;;8.93;5.90;;;;;;;;;;5071622;28;20347;-65
2022/03/06 12:11:51;;;;;;;8.93;4.97;;;;;;;;;;5068764;28;20262;-65
2022/03/06 12:14:22;;;;;;;7.77;5.13;;;;;;;;;;5066759;28;20289;-65
2022/03/06 12:17:02;;;;;;;7.57;4.57;;;;;;;;;;5066071;28;20269;-65
2022/03/06 12:19:29;;;;;;;11.97;6.40;;;;;;;;;;5066445;28;20312;-65
2022/03/06 12:22:11;;;;;;;8.60;5.27;;;;;;;;;;5069196;28;20648;-65
2022/03/06 12:24:39;;;;;;;8.27;5.03;;;;;;;;;;5071778;28;20285;-65
2022/03/06 12:27:11;;;;;;;7.87;5.00;;;;;;;;;;5071999;28;20246;-65
2022/03/06 12:29:48;;;;;;;7.37;4.40;;;;;;;;;;5071179;28;20269;-64
2022/03/06 12:32:27;;;;;;;11.53;6.37;;;;;;;;;;5071288;28;20261;-64
2022/03/06 12:34:58;;;;;;;9.30;5.60;;;;;;;;;;5066350;28;20338;-65
2022/03/06 12:37:25;;;;;;;9.90;6.43;;;;;;;;;;5066646;28;20276;-65
2022/03/06 12:39:53;;;;;;;8.93;5.47;;;;;;;;;;5066521;28;20417;-65
2022/03/06 12:42:27;;;;;;;10.17;6.10;;;;;;;;;;5066345;28;20314;-65
2022/03/06 12:44:56;;;;;;;9.00;5.30;;;;;;;;;;5070710;28;20315;-65
2022/03/06 12:47:23;;;;;;;9.53;5.33;;;;;;;;;;5071654;28;20311;-64
2022/03/06 12:49:51;;;;;;;9.70;4.83;;;;;;;;;;5071755;28;20700;-64
2022/03/06 12:52:19;;;;;;;8.00;4.53;;;;;;;;;;5074931;28;20632;-65
2022/03/06 12:54:47;;;;;;;14.33;5.00;;;;;;;;;;5074396;28;20288;-65
2022/03/06 12:57:15;;;;;;;5.03;3.50;;;;;;;;;;5069663;28;20650;-65
2022/03/06 12:59:43;;;;;;;5.70;3.53;;;;;;;;;;5069865;28;20273;-65
2022/03/06 13:02:11;;;;;;;6.67;4.13;;;;;;;;;;5068993;28;20275;-64
2022/03/06 13:04:38;;;;;;;7.20;4.17;;;;;;;;;;5069707;28;20264;-65
2022/03/06 13:07:07;;;;;;;7.17;3.80;;;;;;;;;;5073926;28;20269;-64
2022/03/06 13:09:36;;;;;;;7.13;4.40;;;;;;;;;;5074338;28;20285;-64
2022/03/06 13:12:05;;;;;;;5.67;3.70;;;;;;;;;;5074770;28;20675;-65
2022/03/06 13:14:34;;;;;;;10.93;4.30;;;;;;;;;;5074498;28;20301;-65
2022/03/06 13:17:08;;;;;;;8.47;4.17;;;;;;;;;;5074426;28;20364;-65
2022/03/06 13:19:39;;;;;;;6.70;3.73;;;;;;;;;;5069273;28;20265;-65
2022/03/06 13:22:10;;;;;;;7.03;3.63;;;;;;;;;;5069521;28;20258;-65
2022/03/06 13:24:49;;;;;;;9.20;3.97;;;;;;;;;;5069192;28;20265;-65
2022/03/06 13:27:21;;;;;;;10.07;3.83;;;;;;;;;;5069378;28;20273;-65
2022/03/06 13:30:04;;;;;;;9.23;4.67;;;;;;;;;;5074385;28;20728;-65
2022/03/06 13:32:32;;;;;;;8.73;4.30;;;;;;;;;;5068180;28;20647;-65
2022/03/06 13:35:00;;;;;;;8.37;4.53;;;;;;;;;;5073880;28;20289;-65
2022/03/06 13:37:35;;;;;;;7.27;4.73;;;;;;;;;;5074001;28;20265;-65
2022/03/06 13:40:09;;;;;;;8.00;4.40;;;;;;;;;;5072280;28;20257;-65
2022/03/06 13:42:37;;;;;;;5.95;3.13;;;;;;;;;;5068717;28;20028;-66
2022/03/06 13:45:08;;;;;;;8.77;4.53;;;;;;;;;;5068923;28;20082;-65
2022/03/06 13:47:47;;;;;;;9.00;5.57;;;;;;;;;;5069243;28;20036;-65
2022/03/06 13:50:26;;;;;;;7.50;3.40;;;;;;;;;;5070809;28;20032;-65
2022/03/06 13:52:53;;;;;;;7.63;3.10;;;;;;;;;;5073472;28;20480;-65
2022/03/06 13:55:21;;;;;;;5.17;2.70;;;;;;;;;;5073773;28;20037;-66
2022/03/06 13:58:02;;;;;;;7.43;3.40;;;;;;;;;;5073502;28;20085;-65
2022/03/06 14:00:31;;;;;;;7.70;4.07;;;;;;;;;;5073120;28;20103;-66
2022/03/06 14:03:00;;;;;;;6.00;4.17;;;;;;;;;;5069690;28;20067;-66
2022/03/06 14:05:28;;;;;;;6.73;4.37;;;;;;;;;;5066562;28;20406;-66
2022/03/06 14:07:55;;;;;;;7.37;4.63;;;;;;;;;;5068260;28;20581;-66
2022/03/06 14:10:42;;;;;;;10.10;5.10;;;;;;;;;;5068123;28;20069;-66
2022/03/06 14:13:27;;;;;;;14.10;6.33;;;;;;;;;;5071620;28;20028;-66
2022/03/06 14:16:05;;;;;;;8.52;5.45;;;;;;;;;;5059680;28;20108;-66
2022/03/06 14:18:33;;;;;;;8.63;4.60;;;;;;;;;;5071627;28;20032;-66
2022/03/06 14:21:00;;;;;;;8.33;5.10;;;;;;;;;;5073047;28;20029;-66
2022/03/06 14:23:29;;;;;;;11.73;6.73;;;;;;;;;;5072939;28;20067;-67
2022/03/06 14:25:57;;;;;;;23.57;8.57;;;;;;;;;;5068387;28;20360;-66
2022/03/06 14:28:25;;;;;;;21.73;9.70;;;;;;;;;;5068227;28;20559;-66
2022/03/06 14:30:52;;;;;;;15.93;8.57;;;;;;;;;;5068024;28;20039;-67
2022/03/06 14:33:19;;;;;;;16.20;9.17;;;;;;;;;;5067750;28;20029;-66
2022/03/06 14:35:46;;;;;;;15.97;9.83;;;;;;;;;;5071658;28;20031;-66
2022/03/06 14:38:13;;;;;;;24.63;10.77;;;;;;;;;;5072773;28;20029;-66
2022/03/06 14:40:40;;;;;;;18.70;10.13;;;;;;;;;;5072465;28;20046;-67
2022/03/06 14:43:07;;;;;;;20.90;11.40;;;;;;;;;;5072602;28;20055;-67